Time;durP1;ratioP1;P1;durP2;ratioP2;P2;SDS_P1;SDS_P2;PMS_P1;PMS_P2;Temp;Humidity;BMP_temperature;BMP_pressure;BME280_temperature;BME280_humidity;BME280_pressure;Samples;Min_cycle;Max_cycle;Signal;HPM_P1;HPM_P2
2021/08/28 00:02:13;;;;;;;10.20;3.80;;;17.20;80.50;;;;;;5040065;28;20657;-88
2021/08/28 00:04:39;;;;;;;12.13;3.43;;;17.10;80.50;;;;;;5041611;28;20181;-89
2021/08/28 00:07:05;;;;;;;7.87;3.70;;;17.10;80.40;;;;;;5040254;28;20177;-89
2021/08/28 00:09:30;;;;;;;7.60;3.77;;;17.00;80.40;;;;;;5041971;28;20181;-89
2021/08/28 00:11:56;;;;;;;19.37;4.37;;;17.00;80.50;;;;;;5043008;28;20462;-89
2021/08/28 00:14:22;;;;;;;11.20;4.67;;;17.00;80.70;;;;;;5044703;28;20617;-88
2021/08/28 00:16:48;;;;;;;11.23;4.87;;;17.00;80.70;;;;;;5046504;28;20234;-88
2021/08/28 00:19:14;;;;;;;11.35;3.90;;;16.90;81.10;;;;;;5065572;28;20220;-88
2021/08/28 00:21:40;;;;;;;10.25;4.35;;;16.90;81.30;;;;;;5044948;28;20200;-90
2021/08/28 00:24:05;;;;;;;12.40;3.77;;;17.00;81.10;;;;;;5046618;28;20227;-89
2021/08/28 00:26:31;;;;;;;6.10;3.50;;;16.90;81.10;;;;;;5043974;28;20179;-90
2021/08/28 00:28:57;;;;;;;9.43;3.30;;;16.90;81.30;;;;;;5047065;28;20579;-90
2021/08/28 00:31:23;;;;;;;7.90;3.70;;;17.10;81.20;;;;;;5047043;28;20181;-90
2021/08/28 00:33:48;;;;;;;10.70;4.17;;;17.30;80.60;;;;;;5041761;28;20496;-90
2021/08/28 00:36:14;;;;;;;12.67;3.57;;;17.50;79.90;;;;;;5038986;28;20280;-90
2021/08/28 00:38:40;;;;;;;9.33;3.53;;;17.50;79.50;;;;;;5039100;28;20173;-90
2021/08/28 00:41:05;;;;;;;13.37;3.70;;;17.40;79.30;;;;;;5039160;28;20173;-90
2021/08/28 00:43:31;;;;;;;17.37;4.00;;;17.50;79.40;;;;;;5038631;28;20193;-90
2021/08/28 00:46:26;;;;;;;12.07;4.47;;;17.60;78.80;;;;;;5039098;28;20203;-89
2021/08/28 00:48:52;;;;;;;7.57;3.45;;;17.70;78.50;;;;;;5038871;28;20169;-90
2021/08/28 00:51:17;;;;;;;12.60;4.57;;;17.60;78.20;;;;;;5038417;28;20181;-90
2021/08/28 00:53:43;;;;;;;8.10;3.67;;;17.70;78.30;;;;;;5039259;28;20280;-90
2021/08/28 00:56:11;;;;;;;10.43;3.70;;;17.60;78.20;;;;;;5038551;28;20621;-89
2021/08/28 00:58:36;;;;;;;14.88;4.43;;;17.50;78.60;;;;;;5057211;28;20169;-89
2021/08/28 01:01:09;;;;;;;18.47;4.00;;;17.60;79.20;;;;;;5038266;28;20616;-91
2021/08/28 01:03:35;;;;;;;10.60;4.00;;;17.40;78.60;;;;;;5056135;28;20189;-90
2021/08/28 01:06:22;;;;;;;9.00;4.17;;;17.40;78.90;;;;;;5039009;28;20608;-90
2021/08/28 01:09:02;;;;;;;13.45;3.83;;;17.40;78.90;;;;;;5038443;28;20808;-88
2021/08/28 01:11:37;;;;;;;6.78;3.47;;;17.50;78.80;;;;;;5037921;28;20587;-90
2021/08/28 01:14:19;;;;;;;9.55;4.70;;;17.50;78.70;;;;;;5037997;28;20566;-90
2021/08/28 01:16:49;;;;;;;14.93;3.75;;;17.40;78.60;;;;;;5038542;28;20208;-89
2021/08/28 01:19:43;;;;;;;11.57;3.95;;;17.30;78.90;;;;;;5038464;28;20197;-90
2021/08/28 01:22:15;;;;;;;14.07;5.25;;;17.10;79.40;;;;;;5037109;28;20201;-89
2021/08/28 01:24:46;;;;;;;25.60;5.95;;;16.90;80.20;;;;;;5038766;28;20191;-89
2021/08/28 01:27:28;;;;;;;13.20;4.78;;;16.80;80.90;;;;;;5037917;28;20573;-89
2021/08/28 01:29:55;;;;;;;14.65;3.88;;;16.70;81.50;;;;;;5038831;28;20198;-89
2021/08/28 01:32:22;;;;;;;8.82;4.40;;;16.70;82.40;;;;;;5037459;28;20199;-89
2021/08/28 01:34:49;;;;;;;11.40;5.22;;;16.90;81.80;;;;;;5055763;28;20209;-90
2021/08/28 01:37:18;;;;;;;12.63;4.45;;;16.90;81.30;;;;;;5038280;28;20176;-90
2021/08/28 01:39:46;;;;;;;11.35;4.75;;;17.00;81.10;;;;;;5038059;28;20186;-90
2021/08/28 01:42:13;;;;;;;14.45;4.40;;;17.00;80.60;;;;;;5037631;28;20220;-89
2021/08/28 01:44:43;;;;;;;14.43;7.18;;;17.10;80.80;;;;;;5037670;28;20530;-89
2021/08/28 01:47:09;;;;;;;8.88;4.68;;;17.00;80.50;;;;;;5039751;28;20337;-89
2021/08/28 01:49:35;;;;;;;23.33;6.25;;;17.00;80.70;;;;;;5037701;28;20180;-89
2021/08/28 01:52:01;;;;;;;11.15;5.05;;;16.90;81.10;;;;;;5036889;28;20169;-91
2021/08/28 01:54:28;;;;;;;18.13;5.32;;;16.90;81.40;;;;;;5037137;28;20177;-90
2021/08/28 01:56:54;;;;;;;9.73;5.00;;;16.80;81.70;;;;;;5038569;28;20170;-90
2021/08/28 01:59:20;;;;;;;11.53;5.83;;;16.80;81.80;;;;;;5050769;28;20188;-90
2021/08/28 02:01:45;;;;;;;12.50;5.10;;;16.80;82.00;;;;;;5058039;28;20431;-90
2021/08/28 02:07:41;;;;;;;11.80;5.03;;;16.70;82.50;;;;;;5055651;28;20163;-91
2021/08/28 02:10:17;;;;;;;14.05;5.10;;;16.70;82.80;;;;;;5037401;28;20177;-90
2021/08/28 02:12:47;;;;;;;10.15;5.00;;;16.70;82.80;;;;;;5037654;28;20205;-90
2021/08/28 02:15:15;;;;;;;10.50;4.70;;;16.70;82.90;;;;;;5036950;28;20197;-90
2021/08/28 02:18:16;;;;;;;12.65;6.28;;;16.90;82.60;;;;;;5054979;28;20176;-90
2021/08/28 02:20:50;;;;;;;11.30;5.13;;;17.00;82.10;;;;;;5037256;28;20224;-89
2021/08/28 02:23:28;;;;;;;14.63;5.93;;;16.90;82.10;;;;;;5036947;28;20273;-90
2021/08/28 02:26:04;;;;;;;17.60;6.15;;;16.90;82.00;;;;;;5045210;28;20165;-90
2021/08/28 02:29:01;;;;;;;11.07;5.13;;;16.90;81.90;;;;;;5061119;28;20195;-88
2021/08/28 02:31:33;;;;;;;12.05;5.70;;;16.80;82.20;;;;;;5059927;28;20165;-90
2021/08/28 02:34:01;;;;;;;20.38;6.85;;;16.90;82.10;;;;;;5037352;28;20204;-90
2021/08/28 02:36:28;;;;;;;14.52;6.28;;;16.70;82.50;;;;;;5036523;28;20205;-88
2021/08/28 02:38:55;;;;;;;12.32;5.03;;;16.60;82.80;;;;;;5037746;28;20177;-89
2021/08/28 02:41:22;;;;;;;18.48;6.00;;;16.80;82.80;;;;;;5042106;28;20228;-90
2021/08/28 02:43:48;;;;;;;14.38;6.57;;;16.90;82.50;;;;;;5039340;28;20204;-90
2021/08/28 02:46:16;;;;;;;10.93;4.93;;;16.90;82.40;;;;;;5036609;28;20181;-89
2021/08/28 02:48:43;;;;;;;26.88;6.35;;;16.70;82.50;;;;;;5037202;28;20201;-89
2021/08/28 02:51:10;;;;;;;12.40;5.15;;;16.60;82.90;;;;;;5037445;28;20208;-90
2021/08/28 02:53:42;;;;;;;16.05;5.88;;;16.80;82.80;;;;;;5036170;28;20308;-90
2021/08/28 02:56:09;;;;;;;11.63;6.00;;;16.80;82.60;;;;;;5036864;28;20197;-90
2021/08/28 02:58:35;;;;;;;19.27;5.70;;;16.90;82.20;;;;;;5036095;28;20181;-91
2021/08/28 03:01:02;;;;;;;17.55;5.20;;;17.00;82.10;;;;;;5054243;28;20174;-90
2021/08/28 03:03:28;;;;;;;17.23;5.35;;;16.90;82.00;;;;;;5036285;28;20250;-91
2021/08/28 03:06:31;;;;;;;14.77;5.38;;;16.80;82.00;;;;;;5036645;28;20177;-90
2021/08/28 03:08:57;;;;;;;16.30;5.40;;;16.80;82.20;;;;;;5036791;28;20524;-89
2021/08/28 03:11:23;;;;;;;17.08;6.18;;;16.80;82.30;;;;;;5035827;28;20188;-90
2021/08/28 03:13:49;;;;;;;13.32;5.57;;;16.80;82.30;;;;;;5053777;28;20201;-90
2021/08/28 03:16:20;;;;;;;18.17;6.50;;;16.90;83.00;;;;;;5054070;28;20197;-88
2021/08/28 03:18:48;;;;;;;16.13;5.28;;;16.90;82.10;;;;;;5035856;28;20415;-89
2021/08/28 03:21:16;;;;;;;11.80;5.68;;;16.70;82.40;;;;;;5035709;28;20178;-90
2021/08/28 03:23:44;;;;;;;25.70;6.32;;;16.70;82.80;;;;;;5035124;28;20197;-90
2021/08/28 03:26:11;;;;;;;21.92;5.57;;;16.70;83.00;;;;;;5035632;28;20184;-90
2021/08/28 03:28:37;;;;;;;10.30;5.30;;;16.70;82.80;;;;;;5039500;28;20180;-90
2021/08/28 03:31:04;;;;;;;14.18;6.45;;;16.70;82.90;;;;;;5023077;28;20196;-91
2021/08/28 03:33:32;;;;;;;34.05;7.15;;;16.70;83.00;;;;;;5039694;28;20311;-90
2021/08/28 03:35:59;;;;;;;17.55;6.32;;;16.70;83.10;;;;;;5023175;28;20209;-89
2021/08/28 03:38:24;;;;;;;19.75;5.70;;;16.70;83.20;;;;;;5040040;28;20188;-89
2021/08/28 03:40:51;;;;;;;20.23;6.00;;;16.60;83.20;;;;;;5041300;28;20185;-90
2021/08/28 03:43:16;;;;;;;13.18;6.40;;;16.70;83.40;;;;;;5039028;28;20432;-89
2021/08/28 03:45:42;;;;;;;12.60;5.53;;;16.80;83.20;;;;;;5057980;28;20188;-88
2021/08/28 03:48:08;;;;;;;15.87;6.77;;;16.80;82.90;;;;;;5039403;28;20663;-89
2021/08/28 03:50:34;;;;;;;16.35;5.78;;;16.70;82.90;;;;;;5039571;28;20177;-89
2021/08/28 03:53:00;;;;;;;13.80;6.07;;;16.70;83.10;;;;;;5039177;28;20232;-89
2021/08/28 03:55:26;;;;;;;21.47;6.47;;;16.70;83.20;;;;;;5038940;28;20236;-89
2021/08/28 03:57:51;;;;;;;13.33;6.20;;;16.80;83.30;;;;;;5039369;28;20174;-90
2021/08/28 04:00:17;;;;;;;19.40;5.70;;;17.00;82.90;;;;;;5039219;28;20223;-90
2021/08/28 04:02:43;;;;;;;28.80;6.33;;;17.00;82.50;;;;;;5038874;28;20279;-89
2021/08/28 04:05:09;;;;;;;13.90;5.63;;;17.10;82.20;;;;;;5039750;28;20423;-90
2021/08/28 04:07:39;;;;;;;14.03;5.40;;;17.10;82.00;;;;;;5039417;28;20181;-90
2021/08/28 04:10:05;;;;;;;11.60;5.65;;;17.00;81.70;;;;;;5039542;28;20419;-90
2021/08/28 04:12:31;;;;;;;11.13;5.78;;;17.00;82.00;;;;;;5038445;28;20257;-90
2021/08/28 04:14:57;;;;;;;16.13;6.30;;;16.90;82.20;;;;;;5038666;28;20201;-90
2021/08/28 04:17:23;;;;;;;15.37;5.97;;;16.90;82.40;;;;;;5038926;28;20570;-90
2021/08/28 04:19:49;;;;;;;11.20;6.15;;;17.10;82.20;;;;;;5038754;28;20189;-89
2021/08/28 04:22:14;;;;;;;12.70;5.47;;;17.00;81.90;;;;;;5038688;28;20211;-90
2021/08/28 04:24:40;;;;;;;18.40;6.43;;;17.20;81.80;;;;;;5038426;28;20177;-88
2021/08/28 04:27:07;;;;;;;20.13;5.50;;;17.40;81.30;;;;;;5038626;28;20226;-87
2021/08/28 04:29:33;;;;;;;16.15;5.50;;;17.10;81.20;;;;;;5038746;28;20640;-86
2021/08/28 04:31:58;;;;;;;12.43;5.67;;;17.00;81.70;;;;;;5038080;28;20177;-87
2021/08/28 04:34:24;;;;;;;13.97;5.30;;;17.00;81.80;;;;;;5038506;28;20226;-88
2021/08/28 04:36:50;;;;;;;15.63;6.17;;;17.00;81.70;;;;;;5038085;28;20208;-89
2021/08/28 04:39:16;;;;;;;10.53;6.03;;;17.00;81.80;;;;;;5037916;28;20435;-89
2021/08/28 04:41:41;;;;;;;16.13;5.80;;;17.10;81.90;;;;;;5038793;28;20177;-89
2021/08/28 04:44:07;;;;;;;13.27;5.73;;;17.10;81.50;;;;;;5037849;28;20204;-89
2021/08/28 04:46:33;;;;;;;14.60;6.30;;;17.10;81.50;;;;;;5039213;28;20180;-89
2021/08/28 04:48:59;;;;;;;11.37;5.83;;;17.00;81.50;;;;;;5056358;28;20954;-90
2021/08/28 04:51:24;;;;;;;27.23;6.57;;;17.00;81.80;;;;;;5038216;28;20181;-90
2021/08/28 04:53:50;;;;;;;17.03;6.20;;;17.00;81.90;;;;;;5038360;28;20205;-90
2021/08/28 04:56:16;;;;;;;13.83;5.80;;;17.10;81.80;;;;;;5038158;28;20197;-89
2021/08/28 04:58:42;;;;;;;12.93;5.63;;;17.20;81.70;;;;;;5038192;28;20919;-90
2021/08/28 05:01:07;;;;;;;12.00;5.80;;;17.30;81.40;;;;;;5038101;28;20173;-90
2021/08/28 05:03:33;;;;;;;17.27;5.90;;;17.20;81.30;;;;;;5037658;28;20208;-90
2021/08/28 05:06:02;;;;;;;8.27;5.17;;;17.20;81.40;;;;;;5038472;28;20180;-90
2021/08/28 05:08:28;;;;;;;21.42;6.68;;;17.10;81.70;;;;;;5038604;28;20196;-89
2021/08/28 05:10:54;;;;;;;15.33;5.20;;;17.10;82.40;;;;;;5038694;28;20622;-89
2021/08/28 05:13:20;;;;;;;17.43;5.77;;;17.20;81.60;;;;;;5057500;28;20204;-90
2021/08/28 05:15:45;;;;;;;17.63;5.90;;;17.20;81.80;;;;;;5056633;28;20193;-89
2021/08/28 05:18:11;;;;;;;10.17;4.63;;;17.10;81.80;;;;;;5062174;28;20193;-89
2021/08/28 05:20:37;;;;;;;14.70;5.63;;;17.20;81.80;;;;;;5061790;28;20439;-89
2021/08/28 05:23:02;;;;;;;16.03;5.70;;;17.30;81.50;;;;;;5061398;28;20193;-88
2021/08/28 05:25:28;;;;;;;18.37;6.60;;;17.30;81.70;;;;;;5061864;28;20241;-88
2021/08/28 05:27:54;;;;;;;11.33;5.63;;;17.40;81.30;;;;;;5062196;28;20265;-90
2021/08/28 05:30:20;;;;;;;16.33;6.72;;;17.50;81.00;;;;;;5062174;28;20181;-90
2021/08/28 05:32:46;;;;;;;16.30;5.60;;;17.40;80.60;;;;;;5061649;28;20193;-90
2021/08/28 05:35:12;;;;;;;17.23;6.43;;;17.40;80.90;;;;;;5061822;28;20247;-89
2021/08/28 05:37:38;;;;;;;27.08;7.25;;;17.30;81.00;;;;;;5061912;28;20170;-90
2021/08/28 05:40:09;;;;;;;17.50;6.00;;;17.20;81.30;;;;;;5061842;28;20169;-89
2021/08/28 05:42:35;;;;;;;22.90;8.07;;;17.30;81.60;;;;;;5061531;28;20432;-87
2021/08/28 05:45:01;;;;;;;20.40;7.30;;;17.40;81.40;;;;;;5061499;28;20168;-87
2021/08/28 05:47:27;;;;;;;19.80;6.47;;;17.50;81.00;;;;;;5061483;28;20432;-87
2021/08/28 05:49:52;;;;;;;14.33;4.83;;;17.40;81.10;;;;;;5060500;28;20420;-90
2021/08/28 05:52:18;;;;;;;11.07;6.40;;;17.60;81.00;;;;;;5060567;28;20216;-88
2021/08/28 05:54:44;;;;;;;13.13;5.40;;;17.50;80.70;;;;;;5056737;28;20205;-88
2021/08/28 05:57:09;;;;;;;16.27;8.30;;;17.50;80.90;;;;;;5040304;28;20247;-88
2021/08/28 05:59:35;;;;;;;10.30;5.70;;;17.60;80.50;;;;;;5039898;28;20550;-87
2021/08/28 06:02:01;;;;;;;17.07;7.10;;;17.70;80.40;;;;;;5057641;28;20165;-88
2021/08/28 06:04:27;;;;;;;13.30;4.93;;;17.60;80.20;;;;;;5041084;28;20603;-90
2021/08/28 06:06:52;;;;;;;8.43;4.20;;;17.70;80.00;;;;;;5057544;28;20546;-90
2021/08/28 06:09:18;;;;;;;10.73;4.30;;;17.70;79.80;;;;;;5047575;28;20766;-90
2021/08/28 06:11:44;;;;;;;7.63;4.27;;;17.70;79.90;;;;;;5039815;28;20193;-90
2021/08/28 06:14:09;;;;;;;14.73;4.80;;;17.80;79.20;;;;;;5039112;28;20211;-89
2021/08/28 06:16:35;;;;;;;11.00;5.47;;;18.00;79.00;;;;;;5040505;28;20637;-89
2021/08/28 06:19:01;;;;;;;17.07;5.93;;;18.10;78.60;;;;;;5039893;28;20184;-89
2021/08/28 06:21:27;;;;;;;12.90;4.57;;;18.00;78.50;;;;;;5040214;28;20181;-88
2021/08/28 06:23:53;;;;;;;10.40;4.30;;;18.00;78.40;;;;;;5040764;28;20268;-88
2021/08/28 06:26:19;;;;;;;9.80;4.20;;;18.00;78.60;;;;;;5040046;28;20432;-90
2021/08/28 06:28:45;;;;;;;13.23;4.20;;;18.10;78.50;;;;;;5039644;28;20860;-90
2021/08/28 06:31:11;;;;;;;13.77;6.53;;;18.00;78.30;;;;;;5042783;28;20204;-92
2021/08/28 06:33:37;;;;;;;12.37;5.20;;;18.10;78.20;;;;;;5053689;28;20511;-91
2021/08/28 06:36:03;;;;;;;11.73;4.60;;;18.10;78.30;;;;;;5054250;28;20216;-92
2021/08/28 06:38:32;;;;;;;15.02;5.30;;;18.10;78.10;;;;;;5053656;28;20411;-89
2021/08/28 06:40:59;;;;;;;14.52;5.82;;;18.10;78.30;;;;;;5052837;28;20250;-90
2021/08/28 06:43:25;;;;;;;11.10;4.60;;;18.30;79.00;;;;;;5053613;28;20219;-90
2021/08/28 06:45:51;;;;;;;7.60;4.30;;;18.30;77.80;;;;;;5071333;28;20249;-90
2021/08/28 06:48:17;;;;;;;11.93;5.70;;;18.40;77.70;;;;;;5054582;28;20181;-90
2021/08/28 06:50:42;;;;;;;12.40;4.93;;;18.30;77.70;;;;;;5054214;28;20420;-89
2021/08/28 06:53:08;;;;;;;13.40;4.83;;;18.50;77.70;;;;;;5072239;28;20196;-90
2021/08/28 06:55:34;;;;;;;8.07;5.00;;;18.50;77.30;;;;;;5073441;28;20191;-91
2021/08/28 06:57:59;;;;;;;12.70;4.60;;;18.50;77.40;;;;;;5057843;28;20188;-90
2021/08/28 07:00:25;;;;;;;8.37;4.70;;;18.40;77.40;;;;;;5057282;28;20173;-89
2021/08/28 07:02:51;;;;;;;7.20;4.63;;;18.50;77.50;;;;;;5057503;28;20196;-89
2021/08/28 07:05:17;;;;;;;15.87;5.33;;;18.50;77.20;;;;;;5058022;28;20181;-89
2021/08/28 07:07:43;;;;;;;11.40;4.63;;;18.50;77.20;;;;;;5056994;28;20181;-89
2021/08/28 07:10:09;;;;;;;9.83;5.00;;;18.60;77.10;;;;;;5057074;28;20412;-88
2021/08/28 07:12:35;;;;;;;11.95;4.35;;;18.70;76.80;;;;;;5055237;28;20205;-89
2021/08/28 07:15:01;;;;;;;6.67;3.90;;;18.70;76.80;;;;;;5057731;28;20197;-89
2021/08/28 07:17:26;;;;;;;9.70;4.30;;;18.80;77.20;;;;;;5058760;28;20415;-89
2021/08/28 07:19:52;;;;;;;9.30;4.10;;;19.00;76.10;;;;;;5057847;28;20452;-90
2021/08/28 07:22:18;;;;;;;7.13;4.23;;;18.90;76.00;;;;;;5057956;28;20212;-90
2021/08/28 07:24:59;;;;;;;6.33;3.60;;;18.90;75.90;;;;;;5058715;28;20165;-89
2021/08/28 07:27:25;;;;;;;16.30;5.00;;;18.80;76.00;;;;;;5058495;28;20446;-89
2021/08/28 07:29:51;;;;;;;11.10;4.40;;;18.70;76.20;;;;;;5076455;28;20181;-90
2021/08/28 07:32:18;;;;;;;11.50;5.00;;;18.90;76.40;;;;;;5057997;28;20442;-90
2021/08/28 07:34:44;;;;;;;7.47;4.35;;;18.90;75.90;;;;;;5058006;28;20173;-89
2021/08/28 07:37:09;;;;;;;8.70;4.40;;;19.10;75.90;;;;;;5058067;28;20189;-89
2021/08/28 07:39:35;;;;;;;7.13;4.50;;;19.20;75.30;;;;;;5058864;28;20435;-90
2021/08/28 07:42:03;;;;;;;10.95;5.15;;;19.30;75.30;;;;;;5051198;28;20267;-89
2021/08/28 07:44:29;;;;;;;8.07;3.95;;;19.60;74.70;;;;;;5042901;28;20181;-89
2021/08/28 07:46:55;;;;;;;12.82;4.30;;;19.50;74.30;;;;;;5044289;28;20259;-89
2021/08/28 07:49:21;;;;;;;7.28;4.32;;;19.50;74.40;;;;;;5044133;28;20241;-88
2021/08/28 07:51:47;;;;;;;8.50;4.30;;;19.50;74.50;;;;;;5040529;28;20203;-88
2021/08/28 07:54:13;;;;;;;7.07;4.20;;;19.30;74.50;;;;;;5041036;28;20273;-88
2021/08/28 07:56:39;;;;;;;8.30;4.10;;;19.20;75.10;;;;;;5043691;28;20467;-88
2021/08/28 07:59:04;;;;;;;6.57;3.80;;;19.30;75.30;;;;;;5042242;28;20181;-87
2021/08/28 08:01:31;;;;;;;7.85;4.10;;;19.20;74.60;;;;;;5063459;28;20177;-88
2021/08/28 08:03:56;;;;;;;7.53;4.50;;;19.30;74.50;;;;;;5043143;28;20261;-88
2021/08/28 08:06:22;;;;;;;12.30;5.00;;;19.40;73.90;;;;;;5040669;28;20181;-88
2021/08/28 08:08:48;;;;;;;9.53;3.70;;;19.50;73.40;;;;;;5035941;28;20814;-88
2021/08/28 08:11:16;;;;;;;7.13;3.33;;;19.70;73.30;;;;;;5037537;28;20781;-89
2021/08/28 08:13:46;;;;;;;10.85;4.07;;;19.90;72.40;;;;;;5038065;28;20197;-88
2021/08/28 08:16:12;;;;;;;9.15;3.78;;;20.00;70.80;;;;;;5040679;28;20205;-88
2021/08/28 08:18:39;;;;;;;7.07;4.07;;;20.00;70.20;;;;;;5039114;28;20177;-88
2021/08/28 08:21:04;;;;;;;8.10;3.65;;;20.20;69.60;;;;;;5039386;28;20174;-87
2021/08/28 08:23:31;;;;;;;5.00;3.23;;;20.20;69.10;;;;;;5038328;28;20217;-88
2021/08/28 08:25:57;;;;;;;7.68;3.50;;;20.10;69.30;;;;;;5039555;28;20612;-88
2021/08/28 08:28:23;;;;;;;7.60;4.07;;;19.90;69.70;;;;;;5040477;28;20185;-88
2021/08/28 08:30:49;;;;;;;10.90;5.40;;;19.70;70.10;;;;;;5039144;28;20624;-87
2021/08/28 08:33:16;;;;;;;8.90;3.30;;;19.80;70.20;;;;;;5038915;28;20223;-87
2021/08/28 08:35:42;;;;;;;5.28;3.90;;;19.80;70.30;;;;;;5039339;28;20197;-89
2021/08/28 08:38:08;;;;;;;4.00;3.60;;;19.90;70.30;;;;;;5041627;28;20212;-88
2021/08/28 08:40:34;;;;;;;10.70;4.07;;;19.90;70.20;;;;;;5042803;28;20363;-88
2021/08/28 08:43:04;;;;;;;4.90;3.07;;;20.00;69.90;;;;;;5039423;28;20435;-88
2021/08/28 08:45:30;;;;;;;6.55;3.28;;;20.10;69.40;;;;;;5022876;28;20652;-88
2021/08/28 08:47:56;;;;;;;10.00;3.17;;;20.00;69.10;;;;;;5039581;28;20275;-88
2021/08/28 08:50:24;;;;;;;7.00;4.15;;;19.90;69.00;;;;;;5039565;28;20643;-88
2021/08/28 08:52:53;;;;;;;7.70;3.72;;;19.80;69.50;;;;;;5039090;28;20201;-88
2021/08/28 08:55:20;;;;;;;9.52;4.10;;;19.80;69.80;;;;;;5038396;28;20542;-87
2021/08/28 08:57:48;;;;;;;6.45;3.80;;;19.80;69.80;;;;;;5056112;28;20235;-87
2021/08/28 09:00:14;;;;;;;4.70;2.95;;;19.90;69.40;;;;;;5045565;28;20177;-88
2021/08/28 09:02:40;;;;;;;6.70;3.20;;;19.70;68.80;;;;;;5045477;28;20295;-88
2021/08/28 09:05:06;;;;;;;5.60;3.70;;;20.00;68.80;;;;;;5047754;28;20185;-87
2021/08/28 09:07:33;;;;;;;5.57;3.90;;;20.30;67.90;;;;;;5040490;28;20427;-88
2021/08/28 09:10:00;;;;;;;4.68;2.95;;;20.50;66.10;;;;;;5058724;28;20200;-87
2021/08/28 09:12:37;;;;;;;3.40;3.10;;;20.60;65.10;;;;;;5039411;28;20205;-88
2021/08/28 09:15:08;;;;;;;4.28;2.78;;;20.60;63.70;;;;;;5040268;28;20280;-89
2021/08/28 09:17:34;;;;;;;5.22;3.38;;;20.50;63.50;;;;;;5023807;28;20188;-88
2021/08/28 09:20:01;;;;;;;8.30;3.25;;;20.40;63.80;;;;;;5038328;28;20204;-88
2021/08/28 09:22:36;;;;;;;4.78;3.40;;;20.20;66.60;;;;;;5041743;28;20201;-85
2021/08/28 09:25:06;;;;;;;7.35;3.67;;;20.00;70.10;;;;;;5039499;28;20173;-86
2021/08/28 09:27:43;;;;;;;6.78;3.67;;;19.80;71.70;;;;;;5047140;28;20188;-85
2021/08/28 09:30:31;;;;;;;11.43;3.50;;;19.60;73.30;;;;;;5053589;28;20165;-85
2021/08/28 09:32:56;;;;;;;8.00;4.00;;;19.50;74.20;;;;;;5041003;28;20230;-85
2021/08/28 09:35:25;;;;;;;6.70;4.33;;;19.50;74.20;;;;;;5040695;28;20291;-85
2021/08/28 09:38:03;;;;;;;7.65;4.53;;;19.80;74.50;;;;;;5040334;28;20181;-85
2021/08/28 09:40:32;;;;;;;5.63;3.72;;;20.10;73.60;;;;;;5043338;28;20264;-86
2021/08/28 09:43:02;;;;;;;4.90;3.13;;;20.10;72.50;;;;;;5040604;28;20204;-87
2021/08/28 09:45:27;;;;;;;8.10;3.75;;;20.30;72.10;;;;;;5057119;28;20208;-85
2021/08/28 09:47:54;;;;;;;5.90;3.97;;;20.40;71.20;;;;;;5038859;28;20181;-86
2021/08/28 09:50:32;;;;;;;5.40;4.43;;;20.40;70.60;;;;;;5040511;28;20430;-86
2021/08/28 09:53:04;;;;;;;7.70;4.10;;;20.40;69.90;;;;;;5042079;28;20212;-86
2021/08/28 09:55:32;;;;;;;5.15;3.55;;;20.40;69.50;;;;;;5060696;28;20235;-86
2021/08/28 09:57:59;;;;;;;4.05;3.35;;;20.40;70.00;;;;;;5060399;28;20173;-85
2021/08/28 10:00:24;;;;;;;9.45;4.32;;;20.50;70.00;;;;;;5040197;28;20181;-85
2021/08/28 10:02:59;;;;;;;10.77;4.20;;;20.50;70.20;;;;;;5037746;28;20674;-86
2021/08/28 10:05:26;;;;;;;4.80;4.30;;;20.70;68.80;;;;;;5039053;28;20168;-86
2021/08/28 10:07:56;;;;;;;8.18;4.13;;;20.80;68.80;;;;;;5038077;28;20636;-85
2021/08/28 10:10:22;;;;;;;6.88;3.90;;;20.70;68.00;;;;;;5040423;28;20178;-84
2021/08/28 10:12:48;;;;;;;10.05;4.63;;;20.70;67.60;;;;;;5058857;28;20211;-85
2021/08/28 10:15:15;;;;;;;7.33;4.13;;;20.70;67.40;;;;;;5038088;28;20328;-87
2021/08/28 10:17:42;;;;;;;10.88;4.20;;;20.70;65.60;;;;;;5054924;28;20618;-88
2021/08/28 10:20:08;;;;;;;6.60;3.88;;;20.60;65.70;;;;;;5036933;28;20690;-87
2021/08/28 10:22:36;;;;;;;9.38;3.85;;;20.40;66.10;;;;;;5036163;28;20632;-87
2021/08/28 10:25:05;;;;;;;5.30;4.80;;;20.60;66.40;;;;;;5036934;28;20293;-87
2021/08/28 10:27:32;;;;;;;7.10;3.95;;;20.60;66.60;;;;;;5037047;28;20230;-87
2021/08/28 10:29:58;;;;;;;8.32;4.40;;;20.80;66.60;;;;;;5037555;28;20177;-85
2021/08/28 10:32:24;;;;;;;8.03;4.00;;;21.00;66.40;;;;;;5039220;28;20300;-86
2021/08/28 10:34:50;;;;;;;11.83;3.77;;;21.00;65.00;;;;;;5038695;28;20459;-85
2021/08/28 10:37:17;;;;;;;6.17;2.77;;;21.30;65.00;;;;;;5022425;28;20454;-85
2021/08/28 10:39:45;;;;;;;3.57;3.00;;;21.30;61.20;;;;;;5039716;28;20434;-85
2021/08/28 10:42:13;;;;;;;4.60;3.37;;;21.30;60.70;;;;;;5038891;28;20431;-86
2021/08/28 10:44:41;;;;;;;4.95;3.80;;;21.40;60.70;;;;;;5056465;28;20415;-87
2021/08/28 10:47:21;;;;;;;7.43;3.27;;;21.40;60.20;;;;;;5037134;28;20205;-90
2021/08/28 10:49:50;;;;;;;6.60;3.30;;;21.30;60.00;;;;;;5038226;28;20454;-88
2021/08/28 10:52:22;;;;;;;3.67;3.33;;;21.30;61.60;;;;;;5037238;28;20435;-89
2021/08/28 10:55:02;;;;;;;4.73;3.43;;;21.50;62.30;;;;;;5037932;28;20427;-89
2021/08/28 10:57:29;;;;;;;8.53;3.70;;;21.50;62.80;;;;;;5036712;28;20792;-90
2021/08/28 11:00:16;;;;;;;5.03;3.43;;;21.50;63.00;;;;;;5037577;28;20476;-85
2021/08/28 11:02:58;;;;;;;8.20;4.30;;;21.70;63.00;;;;;;5039263;28;20481;-87
2021/08/28 11:05:32;;;;;;;9.15;3.70;;;21.60;62.30;;;;;;5036257;28;20427;-87
2021/08/28 11:08:18;;;;;;;9.77;3.73;;;21.70;63.10;;;;;;5039082;28;20177;-88
2021/08/28 11:11:10;;;;;;;4.80;3.87;;;21.80;60.70;;;;;;5018250;28;20937;-89
2021/08/28 11:13:55;;;;;;;3.27;2.97;;;21.80;59.60;;;;;;4994972;28;20433;-87
2021/08/28 11:16:39;;;;;;;5.23;3.63;;;21.80;58.80;;;;;;5017680;28;21056;-87
2021/08/28 11:19:06;;;;;;;2.87;2.53;;;21.80;59.00;;;;;;5017195;28;20459;-88
2021/08/28 11:21:42;;;;;;;5.87;2.83;;;21.80;59.40;;;;;;5017889;28;20415;-90
2021/08/28 11:24:20;;;;;;;6.45;3.63;;;21.80;60.30;;;;;;4999943;28;20405;-87
2021/08/28 11:26:52;;;;;;;4.63;3.00;;;21.90;60.90;;;;;;5028093;28;20188;-87
2021/08/28 11:29:18;;;;;;;7.97;3.93;;;21.80;60.20;;;;;;5030801;28;20416;-86
2021/08/28 11:31:46;;;;;;;7.20;4.20;;;21.80;59.80;;;;;;5022676;28;20443;-85
2021/08/28 11:34:12;;;;;;;4.30;3.90;;;22.00;59.50;;;;;;5047520;28;20408;-86
2021/08/28 11:36:38;;;;;;;5.63;3.03;;;21.80;58.80;;;;;;5023645;28;21009;-86
2021/08/28 11:39:21;;;;;;;7.43;3.57;;;21.70;58.80;;;;;;5022573;28;20456;-86
2021/08/28 11:41:47;;;;;;;5.60;3.20;;;21.80;58.60;;;;;;5022461;28;20428;-87
2021/08/28 11:44:13;;;;;;;5.43;3.50;;;22.10;57.90;;;;;;5024491;28;20432;-86
2021/08/28 11:46:41;;;;;;;6.53;4.13;;;22.30;57.10;;;;;;5022956;28;20428;-89
2021/08/28 11:49:07;;;;;;;4.80;3.33;;;22.50;57.20;;;;;;5029370;28;20178;-87
2021/08/28 11:51:34;;;;;;;7.13;3.43;;;22.20;55.70;;;;;;5040077;28;20443;-85
2021/08/28 11:53:59;;;;;;;4.30;3.50;;;22.00;55.70;;;;;;5041376;28;20455;-87
2021/08/28 11:56:32;;;;;;;5.90;3.77;;;21.80;55.90;;;;;;5040965;28;20502;-87
2021/08/28 11:59:04;;;;;;;8.93;4.03;;;21.70;56.50;;;;;;5041475;28;20166;-85
2021/08/28 12:01:33;;;;;;;8.17;4.27;;;21.70;57.30;;;;;;5041695;28;20420;-86
2021/08/28 12:04:05;;;;;;;11.57;4.10;;;21.80;57.80;;;;;;5043596;28;20436;-86
2021/08/28 12:06:32;;;;;;;5.32;4.00;;;21.80;58.30;;;;;;5042193;28;20456;-86
2021/08/28 12:08:58;;;;;;;7.23;4.60;;;22.10;58.40;;;;;;5049077;28;20189;-88
2021/08/28 12:11:26;;;;;;;8.80;4.40;;;22.30;58.60;;;;;;5062387;28;20432;-87
2021/08/28 12:13:55;;;;;;;9.23;4.53;;;22.10;59.40;;;;;;5062589;28;20451;-85
2021/08/28 12:16:33;;;;;;;8.63;4.40;;;22.10;59.80;;;;;;5062542;28;20489;-87
2021/08/28 12:19:29;;;;;;;6.20;5.30;;;22.20;59.20;;;;;;5061881;28;20434;-87
2021/08/28 12:22:08;;;;;;;6.50;4.13;;;22.30;58.80;;;;;;5059713;28;20411;-87
2021/08/28 12:24:39;;;;;;;4.30;3.87;;;22.10;58.20;;;;;;5059444;28;20424;-87
2021/08/28 12:27:12;;;;;;;7.87;4.70;;;22.40;57.90;;;;;;5043188;28;20907;-87
2021/08/28 12:29:44;;;;;;;7.40;3.60;;;22.50;57.10;;;;;;5024177;28;20431;-88
2021/08/28 12:32:13;;;;;;;5.27;4.17;;;22.30;56.50;;;;;;5038994;28;20443;-87
2021/08/28 12:34:42;;;;;;;9.73;4.83;;;22.00;56.50;;;;;;5039055;28;20416;-88
2021/08/28 12:37:17;;;;;;;5.80;5.10;;;22.10;56.70;;;;;;5038867;28;20451;-88
2021/08/28 12:39:47;;;;;;;6.53;5.00;;;22.20;56.50;;;;;;5039245;28;20442;-88
2021/08/28 12:42:15;;;;;;;5.93;3.97;;;22.30;56.60;;;;;;5038730;28;20436;-88
2021/08/28 12:44:52;;;;;;;6.23;4.00;;;22.40;55.40;;;;;;5038993;28;20427;-87
2021/08/28 12:47:20;;;;;;;7.57;4.20;;;22.50;55.70;;;;;;5038805;28;20936;-87
2021/08/28 12:49:46;;;;;;;4.70;4.00;;;22.70;55.70;;;;;;5038868;28;20915;-88
2021/08/28 12:52:13;;;;;;;9.17;4.40;;;22.70;55.00;;;;;;5038461;28;20452;-88